Time;durP1;ratioP1;P1;durP2;ratioP2;P2;SDS_P1;SDS_P2;PMS_P1;PMS_P2;Temp;Humidity;BMP_temperature;BMP_pressure;BME280_temperature;BME280_humidity;BME280_pressure;Samples;Min_cycle;Max_cycle;Signal;HPM_P1;HPM_P2
2023/03/25 00:01:00;;;;;;;;;;;11.80;91.30;;;;;;5099539;27;19931;-76
2023/03/25 00:03:27;;;;;;;;;;;11.70;91.00;;;;;;5105591;27;19935;-76
2023/03/25 00:05:54;;;;;;;;;;;11.70;90.90;;;;;;5105506;27;19927;-75
2023/03/25 00:08:23;;;;;;;;;;;11.70;91.00;;;;;;5102166;27;20016;-75
2023/03/25 00:10:51;;;;;;;;;;;11.70;91.00;;;;;;5100216;27;19939;-75
2023/03/25 00:13:18;;;;;;;;;;;11.60;90.80;;;;;;5103470;27;19938;-76
2023/03/25 00:15:46;;;;;;;;;;;11.60;90.80;;;;;;5110309;27;20020;-75
2023/03/25 00:18:13;;;;;;;;;;;11.60;90.80;;;;;;5116815;27;19927;-75
2023/03/25 00:20:39;;;;;;;;;;;11.50;90.70;;;;;;5106392;27;19927;-76
2023/03/25 00:23:06;;;;;;;;;;;11.50;90.70;;;;;;5107997;27;19996;-76
2023/03/25 00:25:34;;;;;;;;;;;11.50;90.70;;;;;;5116212;27;19934;-76
2023/03/25 00:28:01;;;;;;;;;;;11.50;90.70;;;;;;5116098;27;19923;-76
2023/03/25 00:30:27;;;;;;;;;;;11.50;90.70;;;;;;5106161;27;19939;-76
2023/03/25 00:32:54;;;;;;;;;;;11.50;90.70;;;;;;5109201;27;19928;-75
2023/03/25 00:35:22;;;;;;;;;;;11.50;90.70;;;;;;5111584;27;19927;-75
2023/03/25 00:37:51;;;;;;;;;;;11.50;90.70;;;;;;5109209;27;19939;-75
2023/03/25 00:40:17;;;;;;;;;;;11.40;90.60;;;;;;5107560;27;20318;-74
2023/03/25 00:42:49;;;;;;;;;;;11.40;90.60;;;;;;5107298;27;19934;-75
2023/03/25 00:45:15;;;;;;;;;;;11.40;91.00;;;;;;5106293;27;19999;-75
2023/03/25 00:47:42;;;;;;;;;;;11.40;90.60;;;;;;5108630;27;19938;-76
2023/03/25 00:50:09;;;;;;;;;;;11.30;90.50;;;;;;5110306;27;19927;-75
2023/03/25 00:52:36;;;;;;;;;;;11.40;90.60;;;;;;5100600;27;19931;-75
2023/03/25 00:55:03;;;;;;;;;;;11.30;90.60;;;;;;5107734;27;19927;-76
2023/03/25 00:57:30;;;;;;;;;;;11.40;90.70;;;;;;5102213;27;19935;-75
2023/03/25 00:59:58;;;;;;;;;;;11.30;90.60;;;;;;5099461;27;19931;-74
2023/03/25 01:02:24;;;;;;;;;;;11.30;90.60;;;;;;5101597;27;19938;-74
2023/03/25 01:04:51;;;;;;;;;;;11.30;90.60;;;;;;5101609;27;20487;-75
2023/03/25 01:07:19;;;;;;;;;;;11.30;90.60;;;;;;5103389;27;19970;-74
2023/03/25 01:09:46;;;;;;;;;;;11.20;90.60;;;;;;5099944;27;19927;-74
2023/03/25 01:12:12;;;;;;;;;;;11.30;90.60;;;;;;5099736;27;19931;-74
2023/03/25 01:14:40;;;;;;;;;;;11.20;90.60;;;;;;5101097;27;19938;-74
2023/03/25 01:17:08;;;;;;;;;;;11.20;90.50;;;;;;5111742;27;19932;-76
2023/03/25 01:19:35;;;;;;;;;;;11.10;90.50;;;;;;5112939;27;19932;-76
2023/03/25 01:22:02;;;;;;;;;;;11.20;90.50;;;;;;5111337;27;20216;-75
2023/03/25 01:24:28;;;;;;;;;;;11.20;90.50;;;;;;5109141;27;19934;-77
2023/03/25 01:26:55;;;;;;;;;;;11.20;90.50;;;;;;5111881;27;19927;-76
2023/03/25 01:29:22;;;;;;;;;;;11.10;90.50;;;;;;5112174;27;19928;-74
2023/03/25 01:31:48;;;;;;;;;;;11.10;90.50;;;;;;5109040;27;20411;-74
2023/03/25 01:34:16;;;;;;;;;;;11.10;90.40;;;;;;5114736;27;19927;-75
2023/03/25 01:36:45;;;;;;;;;;;11.10;90.40;;;;;;5112284;27;19966;-74
2023/03/25 01:39:15;;;;;;;;;;;11.00;90.40;;;;;;5114710;27;20032;-76
2023/03/25 01:41:42;;;;;;;;;;;11.00;90.40;;;;;;5110807;27;19937;-75
2023/03/25 01:44:10;;;;;;;;;;;11.00;90.40;;;;;;5112970;27;19979;-76
2023/03/25 01:46:38;;;;;;;;;;;11.00;90.40;;;;;;5110261;27;19939;-76
2023/03/25 01:49:08;;;;;;;;;;;11.00;90.50;;;;;;5112466;27;19927;-75
2023/03/25 01:51:38;;;;;;;;;;;11.00;90.60;;;;;;5102846;27;19935;-76
2023/03/25 01:54:05;;;;;;;;;;;11.00;90.70;;;;;;5098314;27;19928;-77
2023/03/25 01:56:33;;;;;;;;;;;11.00;90.80;;;;;;5107473;27;19935;-75
2023/03/25 01:59:01;;;;;;;;;;;10.90;90.90;;;;;;5108610;27;19939;-77
2023/03/25 02:01:28;;;;;;;;;;;10.90;91.10;;;;;;5112090;27;19962;-76
2023/03/25 02:04:01;;;;;;;;;;;10.90;91.20;;;;;;5115112;27;19931;-77
2023/03/25 02:06:30;;;;;;;;;;;10.90;91.30;;;;;;5112396;28;19927;-76
2023/03/25 02:08:59;;;;;;;;;;;10.90;91.40;;;;;;5112725;28;19939;-77
2023/03/25 02:11:28;;;;;;;;;;;10.80;91.40;;;;;;5109732;28;19942;-77
2023/03/25 02:13:55;;;;;;;;;;;10.80;91.50;;;;;;5108938;28;19936;-76
2023/03/25 02:16:26;;;;;;;;;;;10.70;91.50;;;;;;5105142;28;20430;-77
2023/03/25 02:19:00;;;;;;;;;;;10.70;91.50;;;;;;5113942;28;19934;-75
2023/03/25 02:21:49;;;;;;;;;;;10.70;91.50;;;;;;5109432;28;19934;-76
2023/03/25 02:24:35;;;;;;;;;;;10.70;91.60;;;;;;5108941;28;20812;-76
2023/03/25 02:27:12;;;;;;;;;;;10.70;91.60;;;;;;5107110;28;19939;-76
2023/03/25 02:29:52;;;;;;;;;;;10.60;91.60;;;;;;5105228;28;19931;-75
2023/03/25 02:32:24;;;;;;;;;;;10.60;91.60;;;;;;5107700;28;20054;-74
2023/03/25 02:35:00;;;;;;;;;;;10.60;91.70;;;;;;5106305;28;20733;-75
2023/03/25 02:37:45;;;;;;;;;;;10.60;91.70;;;;;;5110174;28;19931;-77
2023/03/25 02:40:17;;;;;;;;;;;10.60;91.70;;;;;;5065728;28;20059;-76
2023/03/25 02:42:48;;;;;;;;;;;10.60;91.80;;;;;;5107743;28;19939;-76
2023/03/25 02:45:18;;;;;;;;;;;10.60;91.80;;;;;;5107694;27;19931;-74
2023/03/25 02:47:47;;;;;;;;;;;10.50;91.80;;;;;;5102453;27;20665;-75
2023/03/25 02:50:16;;;;;;;;;;;10.50;91.70;;;;;;5105317;27;20523;-74
2023/03/25 02:52:44;;;;;;;;;;;10.50;91.70;;;;;;5103641;27;19938;-75
2023/03/25 02:55:13;;;;;;;;;;;10.50;92.10;;;;;;5106696;27;20553;-77
2023/03/25 03:00:14;;;;;;;;;;;10.40;91.80;;;;;;5040560;28;19934;-74
2023/03/25 03:02:43;;;;;;;;;;;10.40;91.80;;;;;;5047338;28;20413;-72
2023/03/25 03:05:21;;;;;;;;;;;10.40;91.80;;;;;;5052120;28;19932;-74
2023/03/25 03:07:51;;;;;;;;;;;10.40;92.10;;;;;;5048211;28;19936;-73
2023/03/25 03:10:20;;;;;;;;;;;10.30;91.80;;;;;;5050720;28;19928;-74
2023/03/25 03:12:55;;;;;;;;;;;10.30;91.80;;;;;;5045585;28;19939;-75
2023/03/25 03:15:32;;;;;;;;;;;10.20;91.70;;;;;;5047019;28;19928;-73
2023/03/25 03:18:06;;;;;;;;;;;10.20;91.80;;;;;;5045944;28;19951;-74
2023/03/25 03:20:38;;;;;;;;;;;10.20;91.80;;;;;;5046475;28;20217;-74
2023/03/25 03:23:09;;;;;;;;;;;10.20;91.90;;;;;;5047578;28;19932;-75
2023/03/25 03:25:39;;;;;;;;;;;10.20;91.90;;;;;;5051117;28;19928;-74
2023/03/25 03:28:10;;;;;;;;;;;10.10;91.90;;;;;;5047792;28;20796;-73
2023/03/25 03:30:43;;;;;;;;;;;10.20;91.90;;;;;;5044589;28;19940;-74
2023/03/25 03:33:14;;;;;;;;;;;10.10;91.90;;;;;;5046061;28;19929;-74
2023/03/25 03:35:42;;;;;;;;;;;10.10;91.90;;;;;;5050186;28;19932;-74
2023/03/25 03:38:12;;;;;;;;;;;10.10;91.90;;;;;;5047384;28;19932;-74
2023/03/25 03:40:40;;;;;;;;;;;10.10;91.90;;;;;;5048538;28;19939;-75
2023/03/25 03:43:08;;;;;;;;;;;10.10;92.00;;;;;;5045254;28;19939;-73
2023/03/25 03:45:38;;;;;;;;;;;10.00;92.00;;;;;;5044716;28;19958;-73
2023/03/25 03:48:09;;;;;;;;;;;10.10;92.00;;;;;;5044397;28;20129;-75
2023/03/25 03:50:38;;;;;;;;;;;10.00;91.90;;;;;;5045730;28;19939;-74
2023/03/25 03:53:07;;;;;;;;;;;10.00;91.90;;;;;;5042710;28;20848;-75
2023/03/25 03:55:37;;;;;;;;;;;10.00;91.90;;;;;;5047322;28;19939;-74
2023/03/25 03:58:08;;;;;;;;;;;10.00;91.90;;;;;;5045094;28;20617;-75
2023/03/25 04:00:37;;;;;;;;;;;9.90;91.80;;;;;;5043441;28;19955;-73
2023/03/25 04:03:07;;;;;;;;;;;9.90;91.80;;;;;;5052415;28;20639;-75
2023/03/25 04:05:37;;;;;;;;;;;10.00;91.80;;;;;;5058443;28;20356;-76
2023/03/25 04:08:10;;;;;;;;;;;9.90;91.70;;;;;;5055137;28;19935;-74
2023/03/25 04:10:39;;;;;;;;;;;9.90;91.70;;;;;;5059259;28;19934;-75
2023/03/25 04:13:08;;;;;;;;;;;9.90;91.70;;;;;;5054222;28;19932;-74
2023/03/25 04:15:34;;;;;;;;;;;9.90;91.60;;;;;;5053704;28;20271;-75
2023/03/25 04:18:02;;;;;;;;;;;9.80;91.60;;;;;;5057811;28;20786;-75
2023/03/25 04:20:32;;;;;;;;;;;9.80;91.50;;;;;;5062463;28;20011;-76
2023/03/25 04:23:01;;;;;;;;;;;9.70;91.50;;;;;;5055218;28;20011;-75
2023/03/25 04:25:29;;;;;;;;;;;9.80;91.50;;;;;;5060581;28;20382;-75
2023/03/25 04:27:57;;;;;;;;;;;9.80;91.50;;;;;;5059169;28;19928;-74
2023/03/25 04:30:24;;;;;;;;;;;9.80;91.50;;;;;;5060002;28;20407;-75
2023/03/25 04:32:51;;;;;;;;;;;9.80;91.60;;;;;;5057262;28;19934;-74
2023/03/25 04:35:19;;;;;;;;;;;9.80;91.50;;;;;;5051843;28;19939;-74
2023/03/25 04:37:47;;;;;;;;;;;9.80;91.50;;;;;;5048325;28;19932;-74
2023/03/25 04:40:17;;;;;;;;;;;9.80;91.50;;;;;;5050087;28;20019;-75
2023/03/25 04:42:45;;;;;;;;;;;9.80;91.50;;;;;;5049077;28;20007;-75
2023/03/25 04:45:15;;;;;;;;;;;9.70;91.50;;;;;;5047733;28;20589;-74
2023/03/25 04:47:43;;;;;;;;;;;9.70;91.50;;;;;;5044342;28;19971;-74
2023/03/25 04:50:16;;;;;;;;;;;9.70;91.40;;;;;;5051081;28;19932;-75
2023/03/25 04:52:43;;;;;;;;;;;9.70;91.40;;;;;;5044866;28;19932;-74
2023/03/25 04:55:11;;;;;;;;;;;9.70;91.30;;;;;;5041063;28;19940;-76
2023/03/25 04:57:39;;;;;;;;;;;9.70;91.30;;;;;;5046637;28;19936;-74
2023/03/25 05:00:08;;;;;;;;;;;9.70;91.20;;;;;;5037763;28;20051;-75
2023/03/25 05:02:36;;;;;;;;;;;9.70;91.20;;;;;;5045056;28;19936;-74
2023/03/25 05:05:03;;;;;;;;;;;9.70;91.10;;;;;;5044350;28;19932;-75
2023/03/25 05:07:30;;;;;;;;;;;9.60;91.10;;;;;;5045238;28;19932;-73
2023/03/25 05:09:56;;;;;;;;;;;9.60;91.00;;;;;;5050766;28;19939;-73
2023/03/25 05:12:23;;;;;;;;;;;9.60;91.00;;;;;;5044979;28;19932;-75
2023/03/25 05:14:51;;;;;;;;;;;9.60;91.10;;;;;;5042459;28;20373;-74
2023/03/25 05:17:17;;;;;;;;;;;9.70;91.10;;;;;;5044858;28;20723;-76
2023/03/25 05:19:44;;;;;;;;;;;9.60;91.00;;;;;;5047751;28;19993;-75
2023/03/25 05:22:11;;;;;;;;;;;9.60;91.00;;;;;;5055915;28;19929;-76
2023/03/25 05:24:38;;;;;;;;;;;9.60;91.00;;;;;;5052788;28;19938;-74
2023/03/25 05:27:04;;;;;;;;;;;9.60;91.00;;;;;;5055045;28;19928;-75
2023/03/25 05:29:32;;;;;;;;;;;9.60;91.00;;;;;;5056965;28;19936;-76
2023/03/25 05:32:00;;;;;;;;;;;9.60;90.90;;;;;;5060270;28;19928;-75
2023/03/25 05:34:28;;;;;;;;;;;9.60;90.90;;;;;;5057407;28;19932;-75
2023/03/25 05:36:55;;;;;;;;;;;9.60;91.00;;;;;;5056022;28;20153;-75
2023/03/25 05:39:21;;;;;;;;;;;9.60;91.00;;;;;;5055866;28;19928;-74
2023/03/25 05:41:49;;;;;;;;;;;9.60;91.00;;;;;;5055407;28;20321;-75
2023/03/25 05:44:18;;;;;;;;;;;9.60;91.00;;;;;;5052659;28;20405;-76
2023/03/25 05:46:44;;;;;;;;;;;9.60;91.00;;;;;;5053661;28;19932;-75
2023/03/25 05:49:12;;;;;;;;;;;9.50;90.90;;;;;;5051183;28;19974;-75
2023/03/25 05:51:38;;;;;;;;;;;9.50;90.90;;;;;;5042344;28;19944;-75
2023/03/25 05:54:09;;;;;;;;;;;9.50;90.90;;;;;;5043818;28;19932;-76
2023/03/25 05:56:36;;;;;;;;;;;9.50;90.90;;;;;;5042645;28;20098;-74
2023/03/25 05:59:03;;;;;;;;;;;9.50;90.80;;;;;;5045673;28;19935;-75
2023/03/25 06:01:32;;;;;;;;;;;9.50;90.80;;;;;;5049443;28;20030;-73
2023/03/25 06:04:00;;;;;;;;;;;9.40;90.70;;;;;;5050330;28;19933;-74
2023/03/25 06:06:28;;;;;;;;;;;9.50;90.70;;;;;;5048583;28;20019;-74
2023/03/25 06:08:55;;;;;;;;;;;9.40;90.70;;;;;;5042830;28;19932;-74
2023/03/25 06:11:22;;;;;;;;;;;9.50;90.70;;;;;;5043587;28;19933;-75
2023/03/25 06:13:49;;;;;;;;;;;9.40;90.70;;;;;;5045490;28;19936;-76
2023/03/25 06:16:17;;;;;;;;;;;9.40;90.60;;;;;;5043238;28;19950;-75
2023/03/25 06:18:43;;;;;;;;;;;9.40;90.60;;;;;;5046361;28;19929;-75
2023/03/25 06:21:10;;;;;;;;;;;9.40;90.70;;;;;;5052889;28;20763;-75
2023/03/25 06:23:38;;;;;;;;;;;9.40;90.60;;;;;;5054490;28;20029;-74
2023/03/25 06:26:05;;;;;;;;;;;9.40;90.70;;;;;;5052644;28;19932;-74
2023/03/25 06:28:32;;;;;;;;;;;9.40;90.70;;;;;;5051171;28;19933;-75
2023/03/25 06:31:02;;;;;;;;;;;9.40;90.60;;;;;;5051330;28;19928;-75
2023/03/25 06:33:28;;;;;;;;;;;9.40;90.70;;;;;;5053210;28;19933;-75
2023/03/25 06:35:55;;;;;;;;;;;9.40;90.80;;;;;;5055663;28;19936;-75
2023/03/25 06:38:22;;;;;;;;;;;9.50;90.90;;;;;;5051919;28;19978;-75
2023/03/25 06:40:50;;;;;;;;;;;9.40;91.00;;;;;;5058805;28;19928;-74
2023/03/25 06:43:17;;;;;;;;;;;9.40;91.10;;;;;;5063008;28;19933;-77
2023/03/25 06:45:43;;;;;;;;;;;9.40;91.20;;;;;;5061356;28;19929;-75
2023/03/25 06:48:10;;;;;;;;;;;9.40;91.40;;;;;;5060358;28;20678;-76
2023/03/25 06:50:36;;;;;;;;;;;9.40;91.50;;;;;;5057552;28;19989;-75
2023/03/25 06:53:03;;;;;;;;;;;9.40;91.60;;;;;;5056384;28;19967;-75
2023/03/25 06:55:29;;;;;;;;;;;9.40;91.70;;;;;;5052106;28;19935;-74
2023/03/25 06:57:57;;;;;;;;;;;9.40;91.80;;;;;;5041897;28;19928;-74
2023/03/25 07:00:25;;;;;;;;;;;9.40;92.00;;;;;;5040584;28;19936;-74
2023/03/25 07:02:52;;;;;;;;;;;9.40;92.00;;;;;;5049754;28;19928;-73
2023/03/25 07:05:19;;;;;;;;;;;9.40;92.20;;;;;;5047653;28;19928;-73
2023/03/25 07:07:45;;;;;;;;;;;9.40;92.20;;;;;;5048852;28;19932;-72
2023/03/25 07:10:12;;;;;;;;;;;9.40;92.30;;;;;;5050513;28;19928;-73
2023/03/25 07:12:38;;;;;;;;;;;9.30;92.30;;;;;;5054108;28;19929;-73
2023/03/25 07:15:07;;;;;;;;;;;9.30;92.40;;;;;;5061069;28;19936;-73
2023/03/25 07:17:34;;;;;;;;;;;9.30;92.40;;;;;;5060196;28;19929;-75
2023/03/25 07:20:00;;;;;;;;;;;9.30;92.50;;;;;;5063347;28;19929;-74
2023/03/25 07:22:27;;;;;;;;;;;9.30;92.50;;;;;;5060941;28;20731;-73
2023/03/25 07:24:53;;;;;;;;;;;9.30;92.50;;;;;;5059442;28;20495;-73
2023/03/25 07:27:20;;;;;;;;;;;9.30;92.50;;;;;;5059571;28;19929;-74
2023/03/25 07:29:46;;;;;;;;;;;9.30;92.50;;;;;;5062611;28;19932;-73
2023/03/25 07:32:14;;;;;;;;;;;9.30;92.60;;;;;;5054611;28;19982;-73
2023/03/25 07:34:41;;;;;;;;;;;9.30;92.60;;;;;;5061206;28;19928;-73
2023/03/25 07:37:08;;;;;;;;;;;9.30;92.60;;;;;;5059924;28;20337;-75
2023/03/25 07:39:34;;;;;;;;;;;9.30;92.60;;;;;;5061273;28;20355;-74
2023/03/25 07:42:01;;;;;;;;;;;9.30;92.60;;;;;;5057259;28;19933;-76
2023/03/25 07:44:27;;;;;;;;;;;9.30;92.60;;;;;;5055164;28;19933;-75
2023/03/25 07:46:54;;;;;;;;;;;9.30;92.60;;;;;;5057757;28;19932;-75
2023/03/25 07:49:22;;;;;;;;;;;9.30;92.60;;;;;;5061464;28;19936;-73
2023/03/25 07:51:48;;;;;;;;;;;9.40;92.60;;;;;;5059983;28;19970;-73
2023/03/25 07:54:15;;;;;;;;;;;9.40;92.60;;;;;;5058637;28;19936;-75
2023/03/25 07:56:41;;;;;;;;;;;9.40;92.50;;;;;;5058773;28;19936;-75
2023/03/25 07:59:08;;;;;;;;;;;9.40;92.50;;;;;;5057093;28;20330;-75
2023/03/25 08:01:34;;;;;;;;;;;9.40;92.50;;;;;;5058694;28;19928;-74
2023/03/25 08:04:01;;;;;;;;;;;9.40;92.50;;;;;;5059048;28;19928;-74
2023/03/25 08:06:29;;;;;;;;;;;9.40;92.60;;;;;;5054314;28;19979;-75
2023/03/25 08:08:55;;;;;;;;;;;9.50;92.60;;;;;;5048154;28;19932;-75
2023/03/25 08:11:22;;;;;;;;;;;9.40;92.60;;;;;;5053370;28;19932;-73
2023/03/25 08:13:48;;;;;;;;;;;9.50;92.70;;;;;;5056025;28;19936;-74
2023/03/25 08:16:15;;;;;;;;;;;9.50;92.70;;;;;;5057892;28;19932;-74
2023/03/25 08:18:43;;;;;;;;;;;9.50;92.70;;;;;;5053100;28;19928;-74
2023/03/25 08:21:10;;;;;;;;;;;9.50;92.70;;;;;;5058430;28;20465;-74
2023/03/25 08:23:38;;;;;;;;;;;9.60;92.70;;;;;;5050587;28;20633;-72
2023/03/25 08:26:05;;;;;;;;;;;9.60;92.60;;;;;;5059232;28;19932;-74
2023/03/25 08:28:32;;;;;;;;;;;9.60;92.60;;;;;;5059314;28;19931;-76
2023/03/25 08:31:01;;;;;;;;;;;9.70;92.60;;;;;;5062300;28;19924;-76
2023/03/25 08:33:32;;;;;;;;;;;9.70;92.70;;;;;;5056275;28;19930;-78
2023/03/25 08:36:00;;;;;;;;;;;9.70;92.70;;;;;;5063190;28;20005;-77
2023/03/25 08:38:30;;;;;;;;;;;9.70;92.70;;;;;;5056468;28;20024;-76
2023/03/25 08:40:58;;;;;;;;;;;9.70;92.80;;;;;;5061435;28;19982;-76
2023/03/25 08:43:25;;;;;;;;;;;9.60;92.90;;;;;;5060505;28;19928;-75
2023/03/25 08:45:52;;;;;;;;;;;9.60;93.00;;;;;;5061524;28;19928;-75
2023/03/25 08:48:18;;;;;;;;;;;9.60;93.10;;;;;;5055961;28;19941;-75
2023/03/25 08:50:45;;;;;;;;;;;9.60;93.20;;;;;;5055062;28;19955;-76
2023/03/25 08:53:11;;;;;;;;;;;9.50;93.20;;;;;;5057509;28;19936;-75
2023/03/25 08:55:38;;;;;;;;;;;9.50;93.30;;;;;;5058489;28;20552;-76
2023/03/25 08:58:06;;;;;;;;;;;9.50;93.30;;;;;;5048874;28;20542;-75
2023/03/25 09:00:34;;;;;;;;;;;9.50;93.40;;;;;;5051618;28;20670;-75
2023/03/25 09:03:00;;;;;;;;;;;9.50;93.50;;;;;;5054976;28;19928;-74
2023/03/25 09:05:27;;;;;;;;;;;9.40;93.60;;;;;;5048099;28;20333;-75
2023/03/25 09:07:53;;;;;;;;;;;9.40;93.90;;;;;;5052718;28;19939;-75
2023/03/25 09:10:20;;;;;;;;;;;9.40;93.70;;;;;;5050528;28;19958;-74
2023/03/25 09:12:46;;;;;;;;;;;9.50;93.80;;;;;;5052244;28;19929;-77
2023/03/25 09:15:14;;;;;;;;;;;9.50;94.00;;;;;;5046989;28;19928;-75
2023/03/25 09:17:41;;;;;;;;;;;9.50;94.10;;;;;;5048458;28;19928;-75
2023/03/25 09:20:08;;;;;;;;;;;9.50;94.30;;;;;;5060341;28;19934;-74
2023/03/25 09:22:35;;;;;;;;;;;9.50;94.30;;;;;;5058615;28;20061;-70
2023/03/25 09:25:01;;;;;;;;;;;9.50;94.40;;;;;;5057723;28;19940;-71
2023/03/25 09:27:28;;;;;;;;;;;9.50;94.40;;;;;;5060302;28;19928;-72
2023/03/25 09:29:54;;;;;;;;;;;9.50;94.40;;;;;;5060808;28;19936;-71
2023/03/25 09:32:22;;;;;;;;;;;9.60;94.40;;;;;;5063409;28;19935;-71
2023/03/25 09:34:49;;;;;;;;;;;9.60;94.40;;;;;;5056841;28;19935;-71
2023/03/25 09:37:15;;;;;;;;;;;9.60;94.40;;;;;;5058864;28;19933;-71
2023/03/25 09:39:42;;;;;;;;;;;9.60;94.40;;;;;;5053949;28;20465;-74
2023/03/25 09:42:15;;;;;;;;;;;9.60;94.40;;;;;;5060857;28;19985;-72
2023/03/25 09:44:47;;;;;;;;;;;9.60;94.40;;;;;;5057607;28;19935;-72
2023/03/25 09:47:14;;;;;;;;;;;9.60;94.30;;;;;;5057749;28;19934;-71
2023/03/25 09:49:43;;;;;;;;;;;9.70;94.40;;;;;;5061987;28;19932;-71
2023/03/25 09:52:15;;;;;;;;;;;9.70;94.50;;;;;;5051454;28;19938;-71
2023/03/25 09:54:44;;;;;;;;;;;9.70;94.50;;;;;;5059750;28;20373;-71
2023/03/25 09:57:14;;;;;;;;;;;9.80;94.50;;;;;;5059989;28;20421;-71
2023/03/25 09:59:43;;;;;;;;;;;9.80;94.50;;;;;;5055642;28;19944;-71
2023/03/25 10:02:18;;;;;;;;;;;9.70;94.50;;;;;;5056888;28;19944;-70
2023/03/25 10:05:01;;;;;;;;;;;9.80;94.60;;;;;;5058610;28;19940;-71
2023/03/25 10:07:39;;;;;;;;;;;9.90;94.60;;;;;;5057038;28;21288;-71
2023/03/25 10:10:09;;;;;;;;;;;9.90;94.60;;;;;;5058232;28;19940;-71
2023/03/25 10:12:40;;;;;;;;;;;9.90;94.60;;;;;;5049763;28;20019;-70
2023/03/25 10:15:17;;;;;;;;;;;10.00;94.60;;;;;;5052762;28;19932;-75
2023/03/25 10:17:55;;;;;;;;;;;10.00;94.80;;;;;;5053448;28;19924;-75
2023/03/25 10:20:31;;;;;;;;;;;10.10;95.00;;;;;;5054909;28;19929;-75
2023/03/25 10:23:03;;;;;;;;;;;10.10;94.90;;;;;;5055172;28;19933;-75
2023/03/25 10:25:32;;;;;;;;;;;10.20;94.70;;;;;;5057736;28;20796;-74
2023/03/25 10:27:59;;;;;;;;;;;10.30;94.60;;;;;;5054373;28;20846;-74
2023/03/25 10:30:27;;;;;;;;;;;10.30;94.30;;;;;;5047225;28;19940;-74
2023/03/25 10:32:55;;;;;;;;;;;10.30;93.90;;;;;;5056277;28;19943;-75
2023/03/25 10:35:24;;;;;;;;;;;10.40;93.80;;;;;;5057908;28;20366;-74
2023/03/25 10:37:52;;;;;;;;;;;10.40;93.70;;;;;;5055249;28;19929;-76
2023/03/25 10:40:21;;;;;;;;;;;10.30;93.70;;;;;;5050893;28;19940;-77
2023/03/25 10:42:56;;;;;;;;;;;10.30;93.70;;;;;;5054815;28;20559;-76
2023/03/25 10:45:23;;;;;;;;;;;10.30;93.70;;;;;;5049509;28;19928;-76
2023/03/25 10:47:50;;;;;;;;;;;10.20;93.70;;;;;;5054960;28;19939;-77
2023/03/25 10:50:17;;;;;;;;;;;10.20;93.80;;;;;;5052605;28;20242;-76
2023/03/25 10:52:47;;;;;;;;;;;10.20;93.90;;;;;;5052603;28;19933;-78
2023/03/25 10:55:21;;;;;;;;;;;10.20;94.00;;;;;;5056827;28;19928;-76
2023/03/25 10:57:49;;;;;;;;;;;10.10;94.10;;;;;;5059561;28;19928;-76
2023/03/25 11:00:17;;;;;;;;;;;10.10;94.20;;;;;;5050909;28;19948;-77
2023/03/25 11:02:44;;;;;;;;;;;10.10;94.30;;;;;;5046278;28;19928;-76
2023/03/25 11:05:11;;;;;;;;;;;10.10;94.40;;;;;;5053153;28;19928;-76
2023/03/25 11:07:40;;;;;;;;;;;10.10;94.50;;;;;;5058873;28;19971;-75
2023/03/25 11:10:14;;;;;;;;;;;10.00;94.60;;;;;;5061398;28;19944;-75
2023/03/25 11:12:44;;;;;;;;;;;10.10;94.70;;;;;;5059524;28;19929;-77
2023/03/25 11:15:13;;;;;;;;;;;10.10;94.80;;;;;;5057914;28;19935;-75
2023/03/25 11:17:40;;;;;;;;;;;10.10;94.90;;;;;;5063571;22;20026;-77
2023/03/25 11:20:16;;;;;;;;;;;10.10;94.80;;;;;;5057160;28;20048;-75
2023/03/25 11:22:45;;;;;;;;;;;10.10;94.70;;;;;;5060056;28;19928;-75
2023/03/25 11:25:17;;;;;;;;;;;10.10;94.50;;;;;;5062619;28;20011;-77
2023/03/25 11:27:45;;;;;;;;;;;10.20;94.50;;;;;;5046161;28;19940;-77
2023/03/25 11:30:14;;;;;;;;;;;10.20;94.50;;;;;;5043960;28;19929;-75
2023/03/25 11:32:41;;;;;;;;;;;10.30;94.40;;;;;;5048807;28;19928;-77
2023/03/25 11:35:15;;;;;;;;;;;10.40;94.30;;;;;;5051076;28;19929;-77
2023/03/25 11:37:43;;;;;;;;;;;10.40;94.20;;;;;;5049150;28;19935;-77
2023/03/25 11:40:14;;;;;;;;;;;10.50;94.20;;;;;;5048686;28;20394;-77
2023/03/25 11:42:48;;;;;;;;;;;10.50;94.00;;;;;;5051047;28;19932;-77
2023/03/25 11:45:19;;;;;;;;;;;10.60;93.90;;;;;;5045564;28;19929;-77
2023/03/25 11:47:46;;;;;;;;;;;10.70;93.80;;;;;;5043660;28;19929;-78
2023/03/25 11:50:19;;;;;;;;;;;10.80;93.50;;;;;;5047583;28;19932;-76
2023/03/25 11:52:46;;;;;;;;;;;11.00;93.20;;;;;;5047656;28;20047;-77
2023/03/25 11:55:17;;;;;;;;;;;11.00;92.60;;;;;;5042064;28;19933;-77
2023/03/25 11:57:46;;;;;;;;;;;11.20;92.00;;;;;;5038229;28;19936;-75
2023/03/25 12:00:20;;;;;;;;;;;11.30;91.70;;;;;;5037455;28;20099;-75
2023/03/25 12:02:47;;;;;;;;;;;11.50;91.20;;;;;;5046630;28;19935;-77
2023/03/25 12:05:15;;;;;;;;;;;11.60;90.60;;;;;;5043611;28;19987;-78
2023/03/25 12:07:43;;;;;;;;;;;11.60;90.20;;;;;;5023338;28;19929;-77
2023/03/25 12:10:16;;;;;;;;;;;11.70;90.30;;;;;;5032680;28;19964;-75
2023/03/25 12:12:47;;;;;;;;;;;11.70;90.70;;;;;;5033445;28;20109;-71
2023/03/25 12:15:19;;;;;;;;;;;11.60;90.70;;;;;;5039689;28;19928;-71
2023/03/25 12:17:59;;;;;;;;;;;11.50;90.90;;;;;;5044725;28;20422;-72
2023/03/25 12:20:28;;;;;;;;;;;11.50;91.20;;;;;;5042399;28;19929;-73
2023/03/25 12:23:00;;;;;;;;;;;11.40;91.70;;;;;;5034981;28;19929;-69
2023/03/25 12:25:28;;;;;;;;;;;11.30;92.30;;;;;;5050734;28;20190;-72
2023/03/25 12:28:01;;;;;;;;;;;11.30;92.80;;;;;;5051199;28;19943;-71
2023/03/25 12:30:34;;;;;;;;;;;11.30;93.20;;;;;;5043116;28;19946;-72
2023/03/25 12:33:04;;;;;;;;;;;11.30;93.40;;;;;;5050122;28;19929;-71
2023/03/25 12:35:35;;;;;;;;;;;11.40;93.40;;;;;;5045254;28;20278;-71
2023/03/25 12:38:09;;;;;;;;;;;11.40;93.20;;;;;;5047413;28;19929;-71
2023/03/25 12:40:46;;;;;;;;;;;11.50;92.70;;;;;;5052411;28;20658;-71
2023/03/25 12:43:15;;;;;;;;;;;11.50;91.50;;;;;;5050755;28;20793;-72
2023/03/25 12:45:53;;;;;;;;;;;11.60;91.10;;;;;;5042807;28;20159;-72
2023/03/25 12:48:26;;;;;;;;;;;11.60;90.90;;;;;;5048097;28;19986;-70
2023/03/25 12:50:58;;;;;;;;;;;11.70;90.60;;;;;;5040819;28;19928;-70
2023/03/25 12:53:33;;;;;;;;;;;11.60;90.40;;;;;;5044203;28;19982;-70
2023/03/25 12:56:05;;;;;;;;;;;11.70;90.40;;;;;;5051014;28;19933;-71
2023/03/25 12:58:40;;;;;;;;;;;11.60;90.30;;;;;;5030974;28;20172;-75
2023/03/25 13:01:11;;;;;;;;;;;11.70;90.30;;;;;;5042274;28;19940;-74
2023/03/25 13:03:50;;;;;;;;;;;11.60;90.20;;;;;;5039989;28;20472;-74
2023/03/25 13:06:21;;;;;;;;;;;11.80;89.70;;;;;;5039055;28;19936;-74
2023/03/25 13:08:52;;;;;;;;;;;11.80;89.40;;;;;;5035560;28;20024;-77
2023/03/25 13:11:21;;;;;;;;;;;11.80;89.10;;;;;;5033602;28;19928;-75
2023/03/25 13:13:49;;;;;;;;;;;11.90;88.90;;;;;;5033973;28;19928;-75
2023/03/25 13:16:18;;;;;;;;;;;11.90;87.30;;;;;;5039092;28;20602;-74
2023/03/25 13:18:47;;;;;;;;;;;11.90;87.30;;;;;;5036507;28;19929;-73
2023/03/25 13:21:16;;;;;;;;;;;11.90;86.90;;;;;;5036224;28;19929;-75
2023/03/25 13:23:44;;;;;;;;;;;11.90;86.70;;;;;;5042770;28;19939;-75
2023/03/25 13:26:13;;;;;;;;;;;12.00;86.10;;;;;;5049423;28;19928;-75
2023/03/25 13:28:42;;;;;;;;;;;11.90;84.70;;;;;;5044933;28;19928;-74
2023/03/25 13:31:12;;;;;;;;;;;12.00;84.40;;;;;;5046415;28;19940;-77
2023/03/25 13:33:44;;;;;;;;;;;12.00;83.00;;;;;;5042462;28;20712;-74
2023/03/25 13:36:14;;;;;;;;;;;12.00;82.50;;;;;;5038845;28;20015;-75
2023/03/25 13:38:42;;;;;;;;;;;12.00;81.50;;;;;;5040251;28;19935;-74
2023/03/25 13:41:11;;;;;;;;;;;12.10;81.10;;;;;;5047351;28;20577;-76
2023/03/25 13:43:42;;;;;;;;;;;12.10;80.70;;;;;;5040328;28;19933;-76
2023/03/25 13:46:11;;;;;;;;;;;12.20;79.30;;;;;;5039375;28;20007;-69
2023/03/25 13:48:40;;;;;;;;;;;12.30;78.60;;;;;;5034637;28;20574;-69
2023/03/25 13:51:09;;;;;;;;;;;12.40;78.40;;;;;;5048832;28;19929;-70
2023/03/25 13:53:37;;;;;;;;;;;12.50;77.90;;;;;;5042524;28;20026;-72
2023/03/25 13:56:21;;;;;;;;;;;12.50;78.40;;;;;;5046096;28;20137;-71
2023/03/25 13:59:02;;;;;;;;;;;12.50;78.70;;;;;;5007525;28;20218;-72
2023/03/25 14:01:38;;;;;;;;;;;12.60;79.50;;;;;;5048743;28;19974;-73
2023/03/25 14:04:23;;;;;;;;;;;12.70;79.10;;;;;;5052817;28;19928;-72
2023/03/25 14:06:59;;;;;;;;;;;12.70;79.30;;;;;;5043926;28;19940;-72
2023/03/25 14:09:40;;;;;;;;;;;12.70;80.10;;;;;;5044696;28;19932;-72
2023/03/25 14:12:10;;;;;;;;;;;12.70;79.40;;;;;;5037137;28;19929;-71
2023/03/25 14:14:38;;;;;;;;;;;12.70;79.40;;;;;;5044330;28;19929;-69
2023/03/25 14:17:05;;;;;;;;;;;12.60;79.90;;;;;;5040636;28;19936;-71
2023/03/25 14:19:33;;;;;;;;;;;12.70;81.40;;;;;;5048111;28;20844;-71
2023/03/25 14:22:07;;;;;;;;;;;12.60;82.10;;;;;;5040794;28;20008;-71
2023/03/25 14:24:35;;;;;;;;;;;12.60;82.00;;;;;;5042895;28;20043;-71
2023/03/25 14:27:03;;;;;;;;;;;12.70;81.70;;;;;;5042448;28;19928;-71
2023/03/25 14:29:34;;;;;;;;;;;12.70;80.90;;;;;;5039107;28;20015;-72
2023/03/25 14:32:05;;;;;;;;;;;12.80;80.00;;;;;;5047888;28;19933;-72
2023/03/25 14:34:31;;;;;;;;;;;12.80;79.10;;;;;;5053780;28;19932;-71
2023/03/25 14:37:24;;;;;;;;;;;12.90;78.00;;;;;;5049492;28;19929;-71